createdAt,value
2023-03-05T00:02:09.939Z,97488.78
2023-03-05T00:04:36.951Z,97489.16
2023-03-05T00:07:03.779Z,97481.94
2023-03-05T00:09:30.603Z,97485.59
2023-03-05T00:11:57.656Z,97490.19
2023-03-05T00:14:24.507Z,97491.97
2023-03-05T00:16:51.292Z,97467.19
2023-03-05T00:19:18.337Z,97487.72
2023-03-05T00:21:45.507Z,97475.59
2023-03-05T00:24:17.359Z,97493.41
2023-03-05T00:26:45.245Z,97473.94
2023-03-05T00:29:15.646Z,97483.97
2023-03-05T00:31:45.590Z,97478.19
2023-03-05T00:34:14.824Z,97473.94
2023-03-05T00:36:47.639Z,97475.00
2023-03-05T00:39:15.424Z,97468.28
2023-03-05T00:41:42.338Z,97455.50
2023-03-05T00:44:09.302Z,97470.25
2023-03-05T00:46:36.468Z,97464.13
2023-03-05T00:49:03.959Z,97469.41
2023-03-05T00:51:30.798Z,97462.31
2023-03-05T00:53:57.632Z,97437.25
2023-03-05T00:56:24.598Z,97456.47
2023-03-05T00:58:51.802Z,97460.38
2023-03-05T01:01:18.768Z,97458.69
2023-03-05T01:03:45.725Z,97438.16
2023-03-05T01:06:14.195Z,97444.38
2023-03-05T01:08:41.242Z,97443.22
2023-03-05T01:11:08.573Z,97438.16
2023-03-05T01:13:36.235Z,97432.81
2023-03-05T01:16:04.130Z,97443.69
2023-03-05T01:18:31.158Z,97436.38
2023-03-05T01:20:57.895Z,97406.44
2023-03-05T01:23:24.679Z,97423.53
2023-03-05T01:25:56.837Z,97420.66
2023-03-05T01:28:23.854Z,97428.47
2023-03-05T01:30:50.730Z,97416.41
2023-03-05T01:33:18.047Z,97422.44
2023-03-05T01:35:47.891Z,97417.94
2023-03-05T01:38:15.528Z,97416.19
2023-03-05T01:40:43.809Z,97394.00
2023-03-05T01:43:13.391Z,97413.69
2023-03-05T01:46:18.575Z,97408.59
2023-03-05T01:48:49.925Z,97406.25
2023-03-05T01:51:20.528Z,97402.94
2023-03-05T01:53:47.903Z,97401.69
2023-03-05T01:56:15.076Z,97390.22
2023-03-05T01:58:41.975Z,97374.78
2023-03-05T02:01:09.562Z,97386.47
2023-03-05T02:03:37.108Z,97360.41
2023-03-05T02:06:04.065Z,97389.50
2023-03-05T02:08:30.850Z,97379.38
2023-03-05T02:10:57.814Z,97393.66
2023-03-05T02:13:28.321Z,97370.66
2023-03-05T02:15:58.210Z,97373.34
2023-03-05T02:18:26.026Z,97378.97
2023-03-05T02:20:55.786Z,97388.72
2023-03-05T02:23:28.198Z,97372.19
2023-03-05T02:25:55.277Z,97383.72
2023-03-05T02:28:27.764Z,97382.09
2023-03-05T02:30:54.998Z,97370.28
2023-03-05T02:33:22.500Z,97368.91
2023-03-05T02:35:49.815Z,97378.09
2023-03-05T02:38:19.260Z,97374.28
2023-03-05T02:40:46.058Z,97351.41
2023-03-05T02:43:14.386Z,97364.97
2023-03-05T02:45:41.297Z,97357.44
2023-03-05T02:48:08.107Z,97358.84
2023-03-05T02:50:35.641Z,97351.41
2023-03-05T02:53:03.217Z,97340.19
2023-03-05T02:55:30.105Z,97352.94
2023-03-05T02:57:56.851Z,97340.31
2023-03-05T03:00:23.743Z,97351.28
2023-03-05T03:02:50.548Z,97326.19
2023-03-05T03:05:17.394Z,97347.03
2023-03-05T03:07:44.154Z,97339.63
2023-03-05T03:10:11.518Z,97339.22
2023-03-05T03:12:40.084Z,97340.31
2023-03-05T03:15:08.516Z,97333.34
2023-03-05T03:17:36.777Z,97330.06
2023-03-05T03:20:06.162Z,97344.56
2023-03-05T03:22:33.218Z,97324.63
2023-03-05T03:25:01.366Z,97342.94
2023-03-05T03:27:28.087Z,97322.16
2023-03-05T03:29:54.835Z,97341.13
2023-03-05T03:32:21.655Z,97331.56
2023-03-05T03:34:48.424Z,97334.28
2023-03-05T03:37:15.131Z,97335.34
2023-03-05T03:39:41.855Z,97329.72
2023-03-05T03:42:08.668Z,97326.88
2023-03-05T03:44:35.370Z,97299.53
2023-03-05T03:47:02.708Z,97325.53
2023-03-05T03:49:29.448Z,97296.72
2023-03-05T03:51:56.159Z,97311.66
2023-03-05T03:54:22.996Z,97306.47
2023-03-05T03:56:49.966Z,97323.06
2023-03-05T03:59:16.966Z,97309.38
2023-03-05T04:01:43.678Z,97297.63
2023-03-05T04:04:12.471Z,97315.66
2023-03-05T04:06:39.259Z,97306.72
2023-03-05T04:09:08.187Z,97287.69
2023-03-05T04:11:38.311Z,97315.41
2023-03-05T04:14:05.789Z,97302.94
2023-03-05T04:16:32.580Z,97300.06
2023-03-05T04:18:59.294Z,97291.69
2023-03-05T04:21:26.040Z,97292.66
2023-03-05T04:23:52.790Z,97297.88
2023-03-05T04:26:19.555Z,97290.88
2023-03-05T04:28:48.433Z,97285.31
2023-03-05T04:31:15.248Z,97292.97
2023-03-05T04:33:42.047Z,97292.41
2023-03-05T04:36:09.067Z,97289.94
2023-03-05T04:38:35.774Z,97278.13
2023-03-05T04:41:02.489Z,97291.44
2023-03-05T04:43:29.219Z,97285.69
2023-03-05T04:45:56.118Z,97277.69
2023-03-05T04:48:22.780Z,97279.41
2023-03-05T04:50:49.651Z,97282.16
2023-03-05T04:53:16.651Z,97290.50
2023-03-05T04:55:43.995Z,97282.94
2023-03-05T04:58:10.853Z,97280.59
2023-03-05T05:00:37.586Z,97256.59
2023-03-05T05:03:04.361Z,97277.44
2023-03-05T05:05:31.223Z,97279.09
2023-03-05T05:07:58.826Z,97270.72
2023-03-05T05:10:26.938Z,97282.38
2023-03-05T05:12:54.006Z,97275.94
2023-03-05T05:15:21.092Z,97268.25
2023-03-05T05:17:48.247Z,97269.44
2023-03-05T05:20:16.805Z,97267.69
2023-03-05T05:22:44.051Z,97266.84
2023-03-05T05:25:13.057Z,97265.88
2023-03-05T05:27:40.474Z,97269.31
2023-03-05T05:30:08.400Z,97281.00
2023-03-05T05:32:35.488Z,97267.91
2023-03-05T05:35:03.929Z,97268.03
2023-03-05T05:37:30.856Z,97277.13
2023-03-05T05:39:57.707Z,97277.38
2023-03-05T05:42:25.427Z,97264.06
2023-03-05T05:44:52.498Z,97259.94
2023-03-05T05:47:20.294Z,97280.28
2023-03-05T05:49:49.407Z,97283.94
2023-03-05T05:52:16.769Z,97295.75
2023-03-05T05:54:43.599Z,97276.06
2023-03-05T05:57:10.370Z,97277.81
2023-03-05T05:59:38.347Z,97292.19
2023-03-05T06:02:06.230Z,97291.50
2023-03-05T06:04:32.987Z,97287.69
2023-03-05T06:07:00.167Z,97292.75
2023-03-05T06:09:27.332Z,97285.81
2023-03-05T06:11:54.042Z,97271.09
2023-03-05T06:14:20.870Z,97285.22
2023-03-05T06:16:47.688Z,97279.78
2023-03-05T06:19:15.968Z,97284.16
2023-03-05T06:21:43.718Z,97285.53
2023-03-05T06:24:10.837Z,97278.72
2023-03-05T06:26:37.876Z,97293.09
2023-03-05T06:29:04.796Z,97279.09
2023-03-05T06:31:31.761Z,97296.03
2023-03-05T06:34:03.731Z,97283.38
2023-03-05T06:36:31.056Z,97295.50
2023-03-05T06:38:58.613Z,97299.50
2023-03-05T06:41:28.490Z,97295.81
2023-03-05T06:43:56.208Z,97298.31
2023-03-05T06:46:27.025Z,97297.09
2023-03-05T06:48:57.202Z,97278.03
2023-03-05T06:51:30.748Z,97300.13
2023-03-05T06:54:01.942Z,97303.69
2023-03-05T06:56:28.772Z,97294.38
2023-03-05T06:58:55.517Z,97294.66
2023-03-05T07:01:23.724Z,97266.88
2023-03-05T07:03:55.066Z,97286.25
2023-03-05T07:06:22.391Z,97296.38
2023-03-05T07:08:49.095Z,97289.72
2023-03-05T07:11:18.541Z,97290.69
2023-03-05T07:13:47.991Z,97290.16
2023-03-05T07:16:23.702Z,97290.41
2023-03-05T07:18:50.867Z,97294.28
2023-03-05T07:21:21.769Z,97288.38
2023-03-05T07:23:49.381Z,97282.19
2023-03-05T07:26:16.686Z,97278.25
2023-03-05T07:28:43.587Z,97290.84
2023-03-05T07:31:16.326Z,97285.25
2023-03-05T07:33:43.448Z,97267.00
2023-03-05T07:36:10.957Z,97290.22
2023-03-05T07:38:38.068Z,97278.16
2023-03-05T07:41:10.359Z,97280.94
2023-03-05T07:43:37.597Z,97267.28
2023-03-05T07:46:09.707Z,97276.91
2023-03-05T07:48:36.568Z,97267.06
2023-03-05T07:51:04.958Z,97261.16
2023-03-05T07:53:34.069Z,97253.63
2023-03-05T07:56:03.361Z,97273.81
2023-03-05T07:58:30.030Z,97251.38
2023-03-05T08:00:56.706Z,97265.09
2023-03-05T08:03:23.419Z,97263.31
2023-03-05T08:05:50.189Z,97260.16
2023-03-05T08:08:17.110Z,97264.00
2023-03-05T08:10:43.793Z,97249.59
2023-03-05T08:13:10.907Z,97257.69
2023-03-05T08:15:38.227Z,97256.47
2023-03-05T08:18:05.393Z,97253.88
2023-03-05T08:20:35.323Z,97258.00
2023-03-05T08:23:03.376Z,97253.03
2023-03-05T08:25:30.198Z,97264.00
2023-03-05T08:27:57.070Z,97260.19
2023-03-05T08:30:27.701Z,97258.00
2023-03-05T08:32:54.875Z,97255.78
2023-03-05T08:35:22.082Z,97261.25
2023-03-05T08:37:48.953Z,97246.34
2023-03-05T08:40:18.209Z,97256.19
2023-03-05T08:42:45.224Z,97241.41
2023-03-05T08:45:12.766Z,97268.28
2023-03-05T08:47:40.033Z,97263.75
2023-03-05T08:50:07.156Z,97258.28
2023-03-05T08:52:33.883Z,97264.31
2023-03-05T08:55:00.818Z,97259.25
2023-03-05T08:57:27.545Z,97230.44
2023-03-05T08:59:54.312Z,97257.88
2023-03-05T09:02:21.050Z,97254.31
2023-03-05T09:04:47.729Z,97242.50
2023-03-05T09:07:14.469Z,97237.41
2023-03-05T09:09:41.318Z,97240.53
2023-03-05T09:12:12.025Z,97241.34
2023-03-05T09:14:40.267Z,97236.63
2023-03-05T09:17:07.224Z,97233.56
2023-03-05T09:19:34.153Z,97230.81
2023-03-05T09:22:00.906Z,97224.75
2023-03-05T09:24:28.344Z,97215.00
2023-03-05T09:26:58.716Z,97230.13
2023-03-05T09:29:26.914Z,97224.34
2023-03-05T09:31:54.576Z,97227.75
2023-03-05T09:34:22.054Z,97224.22
2023-03-05T09:36:48.963Z,97234.09
2023-03-05T09:39:16.318Z,97215.63
2023-03-05T09:41:45.870Z,97229.50
2023-03-05T09:44:22.659Z,97234.03
2023-03-05T09:47:07.674Z,97210.44
2023-03-05T09:50:05.184Z,97216.34
2023-03-05T09:52:57.246Z,97221.16
2023-03-05T09:55:50.227Z,97220.56
2023-03-05T09:58:37.028Z,97210.78
2023-03-05T10:01:10.195Z,97210.78
2023-03-05T10:04:04.069Z,97226.28
2023-03-05T10:06:49.007Z,97221.84
2023-03-05T10:10:00.970Z,97213.16
2023-03-05T10:12:42.517Z,97209.66
2023-03-05T10:15:14.243Z,97193.47
2023-03-05T10:18:12.961Z,97194.13
2023-03-05T10:20:52.067Z,97192.28
2023-03-05T10:23:28.814Z,97196.75
2023-03-05T10:26:02.151Z,97192.03
2023-03-05T10:28:48.671Z,97198.22
2023-03-05T10:31:18.103Z,97197.72
2023-03-05T10:34:08.806Z,97198.72
2023-03-05T10:36:59.026Z,97176.56
2023-03-05T10:39:51.869Z,97180.97
2023-03-05T10:42:49.147Z,97192.28
2023-03-05T10:45:23.820Z,97185.44
2023-03-05T10:48:06.082Z,97171.88
2023-03-05T10:51:04.982Z,97172.81
2023-03-05T10:53:50.348Z,97172.94
2023-03-05T10:56:21.695Z,97173.25
2023-03-05T10:58:48.608Z,97168.59
2023-03-05T11:01:18.145Z,97168.44
2023-03-05T11:03:58.300Z,97158.75
2023-03-05T11:06:41.171Z,97174.78
2023-03-05T11:09:16.746Z,97162.59
2023-03-05T11:11:44.710Z,97154.63
2023-03-05T11:14:31.072Z,97152.16
2023-03-05T11:16:57.900Z,97159.28
2023-03-05T11:19:33.282Z,97147.53
2023-03-05T11:22:20.634Z,97144.22
2023-03-05T11:25:10.428Z,97151.91
2023-03-05T11:27:42.158Z,97153.81
2023-03-05T11:30:30.533Z,97136.41
2023-03-05T11:33:10.480Z,97142.72
2023-03-05T11:35:42.142Z,97139.97
2023-03-05T11:38:44.064Z,97137.09
2023-03-05T11:41:12.095Z,97113.13
2023-03-05T11:43:41.663Z,97129.00
2023-03-05T11:46:14.795Z,97129.69
2023-03-05T11:48:45.214Z,97120.09
2023-03-05T11:51:20.839Z,97111.31
2023-03-05T11:53:52.975Z,97104.19
2023-03-05T11:56:28.040Z,97107.84
2023-03-05T11:59:03.037Z,97108.53
2023-03-05T12:01:32.943Z,97108.28
2023-03-05T12:04:00.585Z,97103.16
2023-03-05T12:06:35.049Z,97100.97
2023-03-05T12:09:21.301Z,97099.97
2023-03-05T12:11:54.171Z,97075.56
2023-03-05T12:14:42.180Z,97090.31
2023-03-05T12:17:29.025Z,97079.84
2023-03-05T12:20:17.727Z,97085.81
2023-03-05T12:22:45.268Z,97067.72
2023-03-05T12:25:35.078Z,97070.81
2023-03-05T12:28:02.865Z,97054.13
2023-03-05T12:30:35.410Z,97070.97
2023-03-05T12:33:03.654Z,97074.81
2023-03-05T12:35:41.208Z,97044.66
2023-03-05T12:38:33.045Z,97049.69
2023-03-05T12:41:18.268Z,97045.22
2023-03-05T12:43:44.981Z,97041.84
2023-03-05T12:46:26.603Z,97018.81
2023-03-05T12:48:53.276Z,97043.50
2023-03-05T12:51:39.708Z,97040.31
2023-03-05T12:54:28.706Z,97034.16
2023-03-05T12:56:59.347Z,97025.44
2023-03-05T12:59:39.458Z,97019.53
2023-03-05T13:02:23.358Z,97021.25
2023-03-05T13:04:53.320Z,97018.41
2023-03-05T13:07:20.065Z,97029.13
2023-03-05T13:09:58.013Z,97023.06
2023-03-05T13:12:27.759Z,97018.75
2023-03-05T13:15:08.908Z,97014.13
2023-03-05T13:17:44.552Z,97005.00
2023-03-05T13:20:42.798Z,97017.53
2023-03-05T13:23:22.624Z,97013.63
2023-03-05T13:26:13.246Z,97015.34
2023-03-05T13:28:40.224Z,97017.25
2023-03-05T13:31:13.063Z,97011.38
2023-03-05T13:33:39.909Z,96997.69
2023-03-05T13:36:07.048Z,97015.56
2023-03-05T13:38:43.383Z,97019.47
2023-03-05T13:41:15.973Z,97013.06
2023-03-05T13:43:51.588Z,96997.56
2023-03-05T13:46:29.313Z,96999.88
2023-03-05T13:48:57.140Z,96996.16
2023-03-05T13:51:24.059Z,96994.44
2023-03-05T13:53:51.280Z,96983.53
2023-03-05T13:56:20.373Z,96977.81
2023-03-05T13:58:55.055Z,96974.66
2023-03-05T14:01:25.992Z,96981.97
2023-03-05T14:03:53.959Z,96983.84
2023-03-05T14:06:27.232Z,96973.56
2023-03-05T14:09:05.225Z,96961.34
2023-03-05T14:11:32.263Z,96951.19
2023-03-05T14:14:15.545Z,96944.88
2023-03-05T14:16:49.870Z,96961.41
2023-03-05T14:19:38.577Z,96965.22
2023-03-05T14:22:06.338Z,96961.09
2023-03-05T14:24:34.129Z,96958.50
2023-03-05T14:27:13.313Z,96948.00
2023-03-05T14:29:45.810Z,96943.59
2023-03-05T14:32:39.017Z,96950.97
2023-03-05T14:35:06.692Z,96940.19
2023-03-05T14:37:41.601Z,96950.75
2023-03-05T14:40:20.705Z,96938.97
2023-03-05T14:43:00.892Z,96924.69
2023-03-05T14:45:34.422Z,96925.50
2023-03-05T14:48:03.613Z,96933.75
2023-03-05T14:50:53.193Z,96929.06
2023-03-05T14:53:31.748Z,96915.19
2023-03-05T14:55:58.524Z,96926.44
2023-03-05T14:58:28.378Z,96907.50
2023-03-05T15:00:55.782Z,96900.16
2023-03-05T15:03:23.432Z,96908.50
2023-03-05T15:05:53.248Z,96913.25
2023-03-05T15:08:26.919Z,96913.97
2023-03-05T15:10:54.161Z,96905.00
2023-03-05T15:13:20.992Z,96913.19
2023-03-05T15:15:50.161Z,96900.78
2023-03-05T15:18:19.259Z,96910.41
2023-03-05T15:20:48.818Z,96900.56
2023-03-05T15:23:16.031Z,96898.22
2023-03-05T15:25:43.282Z,96893.22
2023-03-05T15:28:10.119Z,96892.50
2023-03-05T15:30:44.273Z,96895.09
2023-03-05T15:33:14.141Z,96892.13
2023-03-05T15:35:42.998Z,96899.50
2023-03-05T15:38:11.216Z,96874.09
2023-03-05T15:40:37.998Z,96880.22
2023-03-05T15:43:04.769Z,96873.13
2023-03-05T15:45:31.595Z,96880.00
2023-03-05T15:47:58.941Z,96882.72
2023-03-05T15:50:25.803Z,96874.97
2023-03-05T15:52:52.568Z,96877.13
2023-03-05T15:55:19.546Z,96869.84
2023-03-05T15:57:49.340Z,96875.88
2023-03-05T16:00:18.914Z,96853.06
2023-03-05T16:02:45.605Z,96857.84
2023-03-05T16:05:12.634Z,96868.34
2023-03-05T16:07:44.203Z,96862.22
2023-03-05T16:10:14.357Z,96843.78
2023-03-05T16:12:43.060Z,96851.13
2023-03-05T16:15:16.980Z,96848.31
2023-03-05T16:17:45.364Z,96852.25
2023-03-05T16:20:12.788Z,96851.75
2023-03-05T16:22:40.155Z,96837.19
2023-03-05T16:25:07.727Z,96849.66
2023-03-05T16:27:34.823Z,96832.16
2023-03-05T16:30:01.684Z,96841.31
2023-03-05T16:32:28.539Z,96819.09
2023-03-05T16:34:55.322Z,96838.09
2023-03-05T16:37:23.612Z,96841.34
2023-03-05T16:39:50.484Z,96835.34
2023-03-05T16:42:17.591Z,96830.03
2023-03-05T16:44:44.924Z,96829.38
2023-03-05T16:47:12.413Z,96844.41
2023-03-05T16:49:39.720Z,96835.09
2023-03-05T16:52:18.425Z,96835.31
2023-03-05T16:54:45.788Z,96839.84
2023-03-05T16:57:12.665Z,96825.47
2023-03-05T16:59:39.488Z,96828.34
2023-03-05T17:02:06.537Z,96823.31
2023-03-05T17:04:33.361Z,96825.06
2023-03-05T17:07:00.116Z,96825.00
2023-03-05T17:09:26.943Z,96811.59
2023-03-05T17:11:54.817Z,96805.03
2023-03-05T17:14:21.933Z,96814.03
2023-03-05T17:16:48.776Z,96817.78
2023-03-05T17:19:15.709Z,96835.56
2023-03-05T17:21:43.161Z,96818.34
2023-03-05T17:24:10.685Z,96837.78
2023-03-05T17:26:38.363Z,96833.94
2023-03-05T17:29:05.857Z,96838.88
2023-03-05T17:31:33.037Z,96839.84
2023-03-05T17:33:59.849Z,96832.75
2023-03-05T17:36:26.749Z,96832.34
2023-03-05T17:38:53.715Z,96839.75
2023-03-05T17:41:23.263Z,96825.66
2023-03-05T17:43:50.384Z,96830.03
2023-03-05T17:46:19.328Z,96838.38
2023-03-05T17:48:46.303Z,96839.34
2023-03-05T17:51:17.679Z,96827.44
2023-03-05T17:53:44.936Z,96832.50
2023-03-05T17:56:13.984Z,96833.63
2023-03-05T17:58:40.973Z,96837.16
2023-03-05T18:01:08.320Z,96831.97
2023-03-05T18:03:37.324Z,96833.47
2023-03-05T18:06:05.069Z,96815.28
2023-03-05T18:08:32.136Z,96832.94
2023-03-05T18:10:59.319Z,96825.03
2023-03-05T18:13:26.283Z,96830.78
2023-03-05T18:15:53.085Z,96834.03
2023-03-05T18:18:19.858Z,96814.25
2023-03-05T18:20:48.717Z,96821.59
2023-03-05T18:23:15.834Z,96823.81
2023-03-05T18:25:44.331Z,96833.25
2023-03-05T18:28:13.263Z,96831.03
2023-03-05T18:30:41.906Z,96832.94
2023-03-05T18:33:17.404Z,96823.97
2023-03-05T18:35:44.212Z,96824.19
2023-03-05T18:38:11.053Z,96827.25
2023-03-05T18:40:39.837Z,96821.06
2023-03-05T18:43:06.918Z,96817.38
2023-03-05T18:45:34.436Z,96812.34
2023-03-05T18:48:02.521Z,96824.38
2023-03-05T18:50:32.516Z,96799.88
2023-03-05T18:52:59.376Z,96822.06
2023-03-05T18:55:29.335Z,96807.81
2023-03-05T18:57:56.598Z,96815.22
2023-03-05T19:00:26.561Z,96821.91
2023-03-05T19:02:54.054Z,96814.25
2023-03-05T19:05:21.208Z,96811.78
2023-03-05T19:07:48.709Z,96817.69
2023-03-05T19:10:16.544Z,96819.75
2023-03-05T19:12:49.219Z,96812.09
2023-03-05T19:15:16.570Z,96806.19
2023-03-05T19:17:43.334Z,96798.84
2023-03-05T19:20:14.371Z,96798.94
2023-03-05T19:22:41.111Z,96815.78
2023-03-05T19:25:08.908Z,96800.31
2023-03-05T19:27:35.685Z,96794.28
2023-03-05T19:30:02.964Z,96802.78
2023-03-05T19:32:29.906Z,96794.44
2023-03-05T19:34:58.135Z,96787.22
2023-03-05T19:37:25.194Z,96792.28
2023-03-05T19:39:51.988Z,96789.81
2023-03-05T19:42:19.100Z,96794.47
2023-03-05T19:44:46.074Z,96782.03
2023-03-05T19:47:12.877Z,96809.63
2023-03-05T19:49:39.839Z,96790.09
2023-03-05T19:52:07.020Z,96798.59
2023-03-05T19:54:34.245Z,96787.50
2023-03-05T19:57:01.011Z,96791.09
2023-03-05T19:59:28.597Z,96790.38
2023-03-05T20:01:57.644Z,96789.81
2023-03-05T20:04:25.154Z,96787.38
2023-03-05T20:06:52.582Z,96779.03
2023-03-05T20:09:19.898Z,96781.22
2023-03-05T20:11:50.535Z,96772.19
2023-03-05T20:14:17.296Z,96776.16
2023-03-05T20:16:44.284Z,96752.94
2023-03-05T20:19:16.603Z,96748.03
2023-03-05T20:21:44.680Z,96752.94
2023-03-05T20:24:14.810Z,96770.97
2023-03-05T20:26:43.795Z,96764.41
2023-03-05T20:29:11.388Z,96763.88
2023-03-05T20:31:38.614Z,96773.81
2023-03-05T20:34:07.730Z,96753.91
2023-03-05T20:36:34.878Z,96761.94
2023-03-05T20:39:05.341Z,96750.75
2023-03-05T20:41:34.433Z,96760.44
2023-03-05T20:44:01.186Z,96760.19
2023-03-05T20:46:31.191Z,96752.25
2023-03-05T20:49:00.302Z,96756.50
2023-03-05T20:51:33.993Z,96754.72
2023-03-05T20:54:04.392Z,96746.09
2023-03-05T20:56:32.915Z,96743.81
2023-03-05T20:59:01.245Z,96735.59
2023-03-05T21:01:30.298Z,96738.47
2023-03-05T21:03:57.684Z,96755.28
2023-03-05T21:06:25.870Z,96738.75
2023-03-05T21:08:52.912Z,96741.75
2023-03-05T21:11:20.377Z,96732.72
2023-03-05T21:13:47.612Z,96727.28
2023-03-05T21:16:17.548Z,96747.09
2023-03-05T21:18:44.737Z,96738.88
2023-03-05T21:21:11.836Z,96737.22
2023-03-05T21:23:38.620Z,96729.03
2023-03-05T21:26:05.761Z,96735.16
2023-03-05T21:28:33.174Z,96727.81
2023-03-05T21:31:07.441Z,96734.38
2023-03-05T21:33:34.285Z,96715.09
2023-03-05T21:36:01.076Z,96730.13
2023-03-05T21:38:30.545Z,96707.31
2023-03-05T21:40:58.640Z,96723.16
2023-03-05T21:43:26.930Z,96709.47
2023-03-05T21:45:54.966Z,96716.31
2023-03-05T21:48:22.123Z,96706.72
2023-03-05T21:50:49.250Z,96703.31
2023-03-05T21:53:19.469Z,96698.84
2023-03-05T21:56:07.686Z,96698.84
2023-03-05T21:58:35.531Z,96691.31
2023-03-05T22:01:02.960Z,96696.22
2023-03-05T22:03:30.252Z,96700.31
2023-03-05T22:05:57.377Z,96692.38
2023-03-05T22:08:24.626Z,96698.25
2023-03-05T22:10:51.540Z,96676.69
2023-03-05T22:13:20.334Z,96673.94
2023-03-05T22:15:50.995Z,96681.97
2023-03-05T22:18:23.803Z,96678.19
2023-03-05T22:20:50.884Z,96680.34
2023-03-05T22:23:18.689Z,96688.84
2023-03-05T22:25:45.446Z,96671.88
2023-03-05T22:28:12.935Z,96663.28
2023-03-05T22:30:46.254Z,96662.06
2023-03-05T22:33:13.299Z,96650.41
2023-03-05T22:35:41.211Z,96648.78
2023-03-05T22:38:09.327Z,96656.72
2023-03-05T22:40:37.736Z,96662.47
2023-03-05T22:43:04.993Z,96652.47
2023-03-05T22:45:31.761Z,96644.28
2023-03-05T22:47:58.530Z,96651.38
2023-03-05T22:50:25.233Z,96642.22
2023-03-05T22:52:52.622Z,96651.38
2023-03-05T22:55:19.496Z,96641.44
2023-03-05T22:57:46.352Z,96640.31
2023-03-05T23:00:23.816Z,96630.66
2023-03-05T23:02:51.541Z,96639.47
2023-03-05T23:05:19.066Z,96635.13
2023-03-05T23:07:46.097Z,96630.88
2023-03-05T23:10:17.193Z,96624.63
2023-03-05T23:12:46.357Z,96639.78
2023-03-05T23:15:15.572Z,96613.16
2023-03-05T23:17:43.078Z,96623.78
2023-03-05T23:20:11.725Z,96625.31
2023-03-05T23:22:40.579Z,96624.47
2023-03-05T23:25:07.730Z,96626.41
2023-03-05T23:27:34.393Z,96621.34
2023-03-05T23:30:19.529Z,96624.63
2023-03-05T23:32:49.402Z,96622.03
2023-03-05T23:35:22.386Z,96616.00
2023-03-05T23:37:49.544Z,96619.44
2023-03-05T23:40:19.714Z,96611.94
2023-03-05T23:42:46.601Z,96615.47
2023-03-05T23:45:16.150Z,96603.44
2023-03-05T23:47:43.457Z,96594.28
2023-03-05T23:50:16.997Z,96609.03
2023-03-05T23:52:44.952Z,96596.50
2023-03-05T23:55:20.412Z,96590.38
2023-03-05T23:57:47.854Z,96594.84
